x

West Orca Bay - 8nm Nw Of Hinchinbrook Is , Ak (46060) Wave Buoy

5:50am - Wed 1st Jul 2015 All times are AKDT. -8 hours from GMT.

  • Sig Wave height 1.0ft
  • Swell Direction
  • Peak Period 15s
  • Average Period 3s
  • Wind
    11mph, 16mph gusts
  • Sea Temp 56°f
  • Air Temp 53°f
  • Sea Pressure 1023.9mb
  • West Orca Bay - 8nm Nw Of Hinchinbrook  Is , Ak
  • West Orca Bay - 8nm Nw Of Hinchinbrook  Is , Ak

More Historic Weather Station data

Upgrade to MSW Pro to gain access to the past 30 days of data for over 8000 Wavebouys and Weather Stations around the globe.

Join Pro

Comparision Forecast

View Surf forecast
   
Wed 07/01 5:50am 1ft 15s 3s 11 16 mph 1023.9mb 56f 53f
4:50am  -   -   -  16 18 mph 1023.8mb 56f 53f
3:50am 1ft 15s 4s 11 13 mph 1023.8mb 56f 54f
2:50am 0.7ft  -  5s 11 13 mph 1023.8mb 56f 53f
1:50am 0.7ft  -  5s 7 9 mph 1024mb 56f 54f
12:50am 0.7ft  -  6s 4 7 mph 1024mb 56f 53f
Tue 06/30 11:50pm 0.7ft  -  5s 9 11 mph 1024.1mb 56f 53f
10:50pm 0.7ft  -  4s 11
mph
1023.9mb 56f 53f
9:50pm 1ft 2s 3s 13
mph
1023.7mb 56f 53f
8:50pm 1.3ft 3s 3s 13
mph
1023.6mb 56f 54f
7:50pm 1.3ft 3s 3s 13 18 mph 1023.6mb 56f 54f
6:50pm 1ft 15s 3s 13 16 mph 1023.4mb 56f 55f
5:50pm 1ft 14s 3s 11 13 mph 1023.1mb 56f 55f
4:50pm 1ft 15s 3s 11 13 mph 1023mb 56f 55f
3:50pm 1ft 15s 4s 7 11 mph 1023.2mb 56f 55f
2:50pm 1.3ft 3s 3s 4 7 mph 1022.9mb 56f 55f
1:50pm 1.3ft 3s 3s 7 9 mph 1022.8mb 56f 54f
12:50pm 1.6ft 3s 3s 11 13 mph 1022.4mb 56f 53f
11:50am 1.3ft 3s 3s 13 18 mph 1022mb 56f 55f
10:50am 1.3ft 3s 3s 16 18 mph 1022mb 56f 55f
9:50am 1.6ft 3s 3s 20 22 mph 1021.6mb 55f 53f
8:50am 1.3ft 3s 3s 18 20 mph 1021.2mb 55f 53f
7:50am 1.3ft 3s 3s 18 20 mph 1020.6mb 55f 54f
6:50am 1.3ft 3s 3s 7
mph
1020.7mb 55f 53f
5:50am 1ft 3s 3s 16 20 mph 1019.6mb 55f 55f
4:50am 1ft 3s 3s 11 13 mph 1019.3mb 55f 54f
3:50am  -   -   -  11 13 mph 1019mb 55f 54f
2:50am 0.7ft  -  3s 11 13 mph 1019mb 55f 55f
1:50am 0.7ft  -  3s 9
mph
1019.1mb 55f 54f
12:50am 1ft 16s 4s 7 9 mph 1018.9mb 55f 55f
Mon 06/29 11:50pm 1ft 16s 3s 9
mph
1018.7mb 55f 55f
10:50pm 1ft 12s 3s 7 9 mph 1018.7mb 56f 56f
9:50pm 1ft 3s 3s 9 11 mph 1018.4mb 56f 55f
8:50pm 1.3ft 3s 3s 11
mph
1018.3mb 55f 54f
7:50pm 1.3ft 3s 3s 13 16 mph 1018mb 55f 55f
6:50pm 1ft 3s 3s 13 18 mph 1017.6mb 55f 55f
5:50pm 1ft 3s 3s 13 18 mph 1017.4mb 55f 55f
4:50pm 1ft 3s 3s 11 13 mph 1017mb 55f 55f
3:50pm 0.7ft  -  4s 11 13 mph 1016.7mb 55f 56f
2:50pm 0.7ft  -  5s 7 11 mph 1016.3mb 55f 56f
1:50pm 0.7ft  -  6s 7 9 mph 1015.8mb 55f 56f
12:50pm 0.7ft  -  5s 7 9 mph 1015.4mb 55f 55f
11:50am 1ft 7s 5s 7
mph
1015.2mb 55f 55f
10:50am 1.3ft 6s 5s 7
mph
1015mb 55f 55f
9:50am 1.3ft 6s 5s 7
mph
1015mb 55f 55f
8:50am 1.3ft 7s 6s 4
mph
1015.1mb 54f 54f
7:50am 1.3ft 7s 6s 7 9 mph 1015.1mb 54f 54f
6:50am 1ft 7s 5s 2 4 mph 1015.1mb 54f 54f
5:50am 1ft 7s 4s 2 4 mph 1015.2mb 54f 54f
4:50am 1ft 7s 4s 4
mph
1015.5mb 54f 55f
3:50am 1ft 7s 3s 4 7 mph 1015.9mb 54f 55f
2:50am 1.3ft 7s 4s 9
mph
1016.1mb 54f 55f
1:50am 1.3ft 3s 4s 7 9 mph 1016.6mb 54f 55f
12:50am 1.6ft 4s 4s 11
mph
1016.5mb 54f 54f
Sun 06/28 11:50pm 1.6ft 4s 4s 11 13 mph 1016.7mb 54f 55f
10:50pm 1.6ft 4s 4s 13 16 mph 1016.8mb 54f 54f
9:50pm 2ft 4s 3s 16 18 mph 1017mb 55f 53f
8:50pm 2.5ft 4s 4s 16 18 mph 1017mb 55f 54f
7:50pm 2.5ft 4s 4s 18 20 mph 1016.9mb 55f 54f
6:50pm 2.5ft 4s 4s 20 25 mph 1017mb 55f 55f
5:50pm 2.5ft 4s 4s 20 25 mph 1017.1mb 55f 55f
4:50pm 2.5ft 4s 4s 18 22 mph 1017.3mb 55f 55f
3:50pm 2.5ft 4s 4s 20 25 mph 1017.1mb 55f 55f
2:50pm 3ft 4s 4s 20 22 mph 1017.1mb 55f 55f
1:50pm 2.5ft 4s 4s 20 25 mph 1016.9mb 55f 55f
12:50pm 2.5ft 4s 4s 20 27 mph 1016.8mb 54f 54f
11:50am 2.5ft 4s 4s 18 22 mph 1016.7mb 54f 54f
10:50am 2.5ft 4s 4s 16 20 mph 1016.6mb 55f 54f
9:50am 3ft 4s 4s 20 25 mph 1016.3mb 55f 54f
8:50am 3ft 4s 4s 20 22 mph 1016mb 55f 54f
7:50am 2.5ft 3s 4s 20 25 mph 1015.7mb 55f 54f
6:50am 2.5ft 4s 4s 18 22 mph 1015.5mb 55f 54f
5:50am 2.5ft 8s 4s 18 20 mph 1015.4mb 55f 54f
4:50am 2.5ft 4s 4s 18 22 mph 1015.4mb 55f 53f
3:50am 2.5ft 8s 4s 20 22 mph 1015.2mb 55f 54f
2:50am 2.5ft 8s 4s 18 22 mph 1015.4mb 55f 55f
1:50am 3ft 4s 4s 18 20 mph 1015.2mb 55f 55f
12:50am 3.5ft 4s 4s 20 25 mph 1015.1mb 55f 54f
Sat 06/27 11:50pm 3.5ft 4s 4s 20 27 mph 1014.9mb 55f 54f
10:50pm 3.5ft 4s 4s 20 25 mph 1014.7mb 55f 55f
9:50pm 3ft 4s 4s 22 25 mph 1014.6mb 55f 55f
8:50pm 3ft 4s 4s 20 25 mph 1014.8mb 55f 54f
7:50pm 2.5ft 4s 4s 22 27 mph 1014.9mb 55f 54f
6:50pm 2.5ft 4s 4s 20 22 mph 1015.1mb 56f 54f
5:50pm 2.5ft 4s 4s 22 27 mph 1015mb 56f 55f
4:50pm 2.5ft 4s 4s 20 22 mph 1015.2mb 56f 55f
3:50pm 2.5ft 4s 4s 20 25 mph 1015.1mb 56f 55f